Latest Weather Observations for Wilcannia Airport

IDN60801

Issued at 5:33 am EDT Sunday 25 October 2020 (issued every 10 minutes, with the page automatically refreshed every 10 minutes)

About weather observations | Map of weather stations | Latest weather observations for NSW | Other Formats
Station Details ID: 046012 Name: WILCANNIA AERODROME AWS Lat: -31.52 Lon: 143.38 Height: 94.3 m
Data from the previous 72 hours. | See also: Recent months at Wilcannia Airport
Date/Time
EDT
Temp
°C
App
Temp
°C
Dew
Point
°C
Rel
Hum
%
Delta-T
°C
Wind Press
QNH
hPa
Press
MSL
hPa
Rain since
9am
mm
Dir  Spd
km/h
Gust
km/h
Spd
kts
Gust
kts
25/05:30am 9.9 3.9 1.0 54 3.7 S 22 30 12 16 1014.7 1014.4 4.2
25/05:00am 10.3 4.7 1.2 53 3.8 S 20 28 11 15 1014.3 1014.0 4.2
25/04:30am 11.0 3.8 1.0 50 4.2 S 28 39 15 21 1014.0 1013.7 4.2
25/04:00am 11.6 4.1 1.5 50 4.3 S 30 43 16 23 1013.6 1013.3 4.2
25/03:30am 12.1 6.1 3.3 55 3.9 S 24 33 13 18 1013.2 1012.9 4.2
25/03:00am 12.8 6.5 4.0 55 4.0 S 26 35 14 19 1013.0 1012.7 4.2
25/02:30am 13.2 7.9 5.1 58 3.8 SSW 22 30 12 16 1013.2 1012.9 4.2
25/02:00am 13.4 8.5 5.1 57 3.9 SSW 20 32 11 17 1013.3 1013.0 4.2
25/01:30am 13.1 8.5 5.5 60 3.6 SSW 19 24 10 13 1013.4 1013.1 4.2
25/01:00am 13.2 9.0 5.9 61 3.5 SW 17 24 9 13 1013.3 1013.0 4.2
25/12:30am 13.5 9.3 5.7 59 3.7 SW 17 22 9 12 1013.2 1012.9 4.2
25/12:00am 14.4 9.8 5.7 56 4.2 SSW 19 24 10 13 1013.0 1012.7 4.2
 
Date/Time
EDT
Temp
°C
App
Temp
°C
Dew
Point
°C
Rel
Hum
%
Delta-T
°C
Wind Press
QNH
hPa
Press
MSL
hPa
Rain since
9am
mm
Dir  Spd
km/h
Gust
km/h
Spd
kts
Gust
kts
24/11:30pm 15.1 9.9 5.6 53 4.5 SSW 22 30 12 16 1012.6 1012.4 4.2
24/11:00pm 15.8 9.9 5.7 51 4.9 SSW 26 39 14 21 1012.7 1012.5 4.2
24/10:30pm 16.1 9.9 6.3 52 4.8 SSW 28 41 15 22 1012.3 1012.1 4.2
24/10:00pm 16.6 10.5 6.4 51 5.0 SSW 28 37 15 20 1012.0 1011.8 4.2
24/09:30pm 16.6 12.1 7.0 53 4.8 SSW 20 28 11 15 1011.3 1011.1 4.2
24/09:00pm 17.1 12.0 7.5 53 4.8 SSW 24 33 13 18 1010.7 1010.5 4.2
24/08:30pm 17.4 13.2 8.3 55 4.7 SSW 20 30 11 16 1010.2 1009.9 4.2
24/08:00pm 17.3 12.5 9.0 58 4.3 SSW 24 37 13 20 1009.8 1009.5 4.2
24/07:30pm 17.1 11.6 9.3 60 4.1 SSW 28 43 15 23 1009.1 1008.8 4.2
24/07:00pm 17.0 10.3 9.7 62 3.9 SSW 35 46 19 25 1008.8 1008.5 4.2
24/06:32pm 17.0 10.8 10.1 64 3.7 SSW 33 52 18 28 1008.5 1008.2 4.2
24/06:30pm 16.9 10.3 10.1 64 3.6 SSW 35 52 19 28 1008.4 1008.1 4.2
24/06:25pm 17.0 10.4 10.1 64 3.7 SSW 35 54 19 29 1008.3 1008.0 4.2
24/06:00pm 17.0 10.2 10.6 66 3.4 SW 37 52 20 28 1007.8 1007.5 4.2
24/05:30pm 17.1 11.1 10.9 67 3.3 SW 33 48 18 26 1007.3 1007.0 4.2
24/05:00pm 16.8 10.6 11.3 70 3.0 SW 35 54 19 29 1007.1 1006.8 4.2
24/04:59pm 16.9 10.7 11.4 70 3.0 SW 35 54 19 29 1007.1 1006.8 4.2
24/04:30pm 17.0 10.2 11.9 72 2.8 SW 39 54 21 29 1006.7 1006.4 4.2
24/04:00pm 17.3 10.9 12.0 71 2.9 SW 37 50 20 27 1006.4 1006.1 4.2
24/03:30pm 17.5 11.3 12.6 73 2.7 SW 37 50 20 27 1006.1 1005.8 4.2
24/03:00pm 17.8 10.9 12.9 73 2.8 SW 41 54 22 29 1006.2 1005.9 4.2
24/02:30pm 17.4 11.1 13.5 78 2.2 SW 39 54 21 29 1005.8 1005.5 4.2
24/02:00pm 18.8 12.4 14.3 75 2.6 SW 41 56 22 30 1005.3 1005.0 4.2
24/01:30pm 19.7 13.5 14.9 74 2.8 SW 41 52 22 28 1004.9 1004.6 4.2
24/01:00pm 20.5 15.1 15.9 75 2.8 SW 39 50 21 27 1004.5 1004.2 4.2
24/12:30pm 20.0 15.0 16.2 79 2.3 SW 37 48 20 26 1004.3 1004.0 4.2
24/12:00pm 19.4 17.5 16.6 84 1.7 SW 22 44 12 24 1004.1 1003.8 4.0
24/11:30am 20.7 18.5 15.9 74 2.9 WSW 22 32 12 17 1004.0 1003.7 0.6
24/11:00am 22.8 21.3 14.1 58 5.1 SW 15 20 8 11 1003.8 1003.5 0.2
24/10:30am 23.9 23.8 14.9 57 5.4 NW 9 17 5 9 1003.8 1003.5 0.2
24/10:00am 21.8 20.8 14.7 64 4.2 NW 13 20 7 11 1004.0 1003.7 0.0
24/09:30am 22.3 20.5 15.6 66 4.0 NW 19 28 10 15 1003.9 1003.6 0.0
24/09:00am 21.6 19.5 15.2 67 3.8 NNW 20 28 11 15 1003.8 1003.5 0.8
24/08:30am 21.2 19.7 16.2 73 3.0 NNW 19 24 10 13 1003.6 1003.3 0.8
24/08:00am 20.2 18.7 16.2 78 2.4 NNW 19 22 10 12 1003.3 1003.0 0.8
24/07:30am 19.1 18.6 16.0 82 1.9 NW 13 17 7 9 1002.9 1002.6 0.8
24/07:00am 18.3 17.7 15.6 84 1.6 NNW 13 19 7 10 1002.7 1002.4 0.8
24/06:30am 18.5 17.0 15.4 82 1.8 NNW 17 22 9 12 1002.6 1002.3 0.8
24/06:00am 18.9 17.4 15.4 80 2.1 NNW 17 20 9 11 1002.2 1001.9 0.8
24/05:30am 19.5 17.5 15.4 77 2.4 NNW 20 28 11 15 1001.5 1001.3 0.8
24/05:00am 19.6 18.1 15.3 76 2.6 NNW 17 22 9 12 1001.5 1001.3 0.8
24/04:30am 19.9 18.6 14.9 73 2.9 NNW 15 22 8 12 1001.6 1001.4 0.8
24/04:00am 20.8 17.8 14.9 69 3.5 NNW 24 33 13 18 1001.6 1001.4 0.8
24/03:30am 20.9 18.7 15.0 69 3.5 NNW 20 28 11 15 1001.3 1001.1 0.8
24/03:00am 20.9 18.3 14.8 68 3.6 NNW 22 28 12 15 1001.9 1001.6 0.8
24/02:30am 20.6 17.5 14.5 68 3.6 NNW 24 32 13 17 1002.1 1001.8 0.8
24/02:00am 20.7 17.8 14.1 66 3.9 N 22 32 12 17 1002.2 1001.9 0.8
24/01:30am 20.6 18.1 14.0 66 3.8 N 20 32 11 17 1002.8 1002.5 0.8
24/01:00am 19.1 18.0 15.2 78 2.3 NNE 15 19 8 10 1003.3 1003.0 0.8
24/12:30am 18.8 17.7 15.3 80 2.1 ENE 15 19 8 10 1003.2 1002.9 0.8
24/12:00am 18.7 18.5 15.6 82 1.8 E 11 17 6 9 1002.8 1002.5 0.8
 
Date/Time
EDT
Temp
°C
App
Temp
°C
Dew
Point
°C
Rel
Hum
%
Delta-T
°C
Wind Press
QNH
hPa
Press
MSL
hPa
Rain since
9am
mm
Dir  Spd
km/h
Gust
km/h
Spd
kts
Gust
kts
23/11:30pm 18.9 19.2 16.1 84 1.7 SSE 9 11 5 6 1003.4 1003.1 0.8
23/11:00pm 19.8 19.9 15.4 76 2.6 ENE 9 13 5 7 1003.6 1003.3 0.6
23/10:30pm 20.5 18.4 14.6 69 3.5 E 19 22 10 12 1002.6 1002.3 0.0
23/10:00pm 21.7 19.2 13.6 60 4.7 ESE 19 24 10 13 1002.7 1002.4 0.0
23/09:30pm 21.7 18.6 13.3 59 4.8 E 22 28 12 15 1002.0 1001.7 0.0
23/09:00pm 22.1 20.8 13.7 59 4.9 ESE 13 17 7 9 1003.6 1003.3 0.0
23/08:30pm 22.4 21.9 13.7 58 5.1 SE 9 13 5 7 1003.8 1003.5 0.0
23/08:00pm 22.6 21.5 14.2 59 5.0 SSE 13 19 7 10 1003.4 1003.1 0.0
23/07:30pm 22.8 21.0 14.4 59 5.0 SSE 17 24 9 13 1003.0 1002.7 0.0
23/07:00pm 23.2 21.5 14.7 58 5.1 S 17 26 9 14 1003.8 1003.5 0.0
23/06:30pm 26.2 23.7 12.3 42 8.0 WNW 17 24 9 13 1003.4 1003.1 0.0
23/06:00pm 26.6 24.0 11.9 40 8.5 NNW 17 24 9 13 1003.1 1002.8 0.0
23/05:30pm 26.7 24.2 12.4 41 8.3 NW 17 24 9 13 1003.9 1003.6 0.0
23/05:00pm 26.8 23.5 11.7 39 8.7 NNW 20 28 11 15 1004.1 1003.8 0.0
23/04:30pm 27.2 25.0 12.0 38 8.8 NW 15 24 8 13 1004.1 1003.8 0.0
23/04:00pm 27.2 23.3 10.8 36 9.3 NNW 22 32 12 17 1004.5 1004.2 0.0
23/03:30pm 27.3 23.4 10.9 36 9.3 NW 22 32 12 17 1004.6 1004.3 0.0
23/03:00pm 27.6 22.4 10.3 34 9.8 NNW 28 35 15 19 1004.2 1003.9 0.0
23/02:30pm 28.5 22.5 10.2 32 10.3 N 32 43 17 23 1004.5 1004.2 0.0
23/02:00pm 28.5 21.8 9.7 31 10.6 NNW 35 46 19 25 1004.7 1004.4 0.0
23/01:30pm 28.7 21.8 8.9 29 11.0 N 35 52 19 28 1004.9 1004.6 0.0
23/01:27pm 28.5 21.4 8.2 28 11.1 N 35 52 19 28 1004.8 1004.5 0.0
23/01:00pm 28.2 23.4 9.0 30 10.7 N 24 37 13 20 1005.3 1005.0 0.0
23/12:30pm 27.0 22.6 8.9 32 9.9 NNE 22 28 12 15 1005.7 1005.4 0.0
23/12:00pm 26.1 23.0 10.3 37 8.9 NNE 17 22 9 12 1006.5 1006.2 0.0
23/11:30am 24.7 24.1 13.6 50 6.5 N 9 17 5 9 1007.1 1006.8 0.0
23/11:00am 23.7 22.0 14.7 57 5.4 N 17 24 9 13 1007.6 1007.3 0.0
23/10:30am 22.5 21.6 15.8 66 4.0 N 15 19 8 10 1008.0 1007.7 0.0
23/10:00am 21.6 20.1 15.4 68 3.7 NE 17 22 9 12 1007.3 1007.0 0.0
23/09:30am 21.0 20.3 15.5 71 3.3 NE 13 17 7 9 1007.1 1006.8 0.0
23/09:00am 20.4 19.5 15.8 75 2.8 ENE 15 19 8 10 1006.9 1006.6 1.6
23/08:30am 19.9 18.4 15.3 75 2.7 NE 17 22 9 12 1006.7 1006.4 1.6
23/08:00am 18.6 16.9 14.7 78 2.3 ENE 17 20 9 11 1006.4 1006.1 1.6
23/07:30am 16.0 12.9 12.2 78 2.1 E 20 22 11 12 1006.4 1006.1 1.6
23/07:00am 18.3 16.7 15.0 81 1.9 ENE 17 20 9 11 1006.8 1006.5 1.6
23/06:30am 17.5 16.8 14.4 82 1.8 NE 11 15 6 8 1007.2 1006.9 1.6
23/06:00am 17.1 16.4 14.4 84 1.6 NNE 11 13 6 7 1007.6 1007.3 1.6
23/05:30am 17.0 16.8 13.7 81 1.9 ENE 7 11 4 6 1007.5 1007.2 1.2
23/05:00am 17.2 15.8 13.3 78 2.2 WSW 13 22 7 12 1008.1 1007.8 1.2
23/04:30am 17.6 15.1 10.9 65 3.6 NW 15 24 8 13 1007.1 1006.8 1.0
23/04:28am 17.6 15.6 11.4 67 3.4 NW 13 24 7 13 1006.9 1006.6 1.0
23/04:00am 19.6 16.2 2.0 31 8.1 E 9 11 5 6 1004.9 1004.6 0.0
23/03:30am 19.9 15.3 1.4 29 8.4 ENE 15 20 8 11 1004.9 1004.6 0.0
23/03:00am 20.3 15.6 1.2 28 8.7 ENE 15 20 8 11 1005.3 1005.0 0.0
23/02:30am 19.3 14.7 1.3 30 8.1 NE 15 17 8 9 1005.8 1005.5 0.0
23/02:00am 19.4 15.0 0.4 28 8.5 ENE 13 15 7 8 1006.0 1005.7 0.0
23/01:30am 19.7 15.0 1.2 29 8.4 E 15 20 8 11 1006.6 1006.3 0.0
23/01:00am 19.4 15.1 0.9 29 8.3 E 13 15 7 8 1006.7 1006.4 0.0
23/12:30am 19.2 15.3 1.2 30 8.1 E 11 13 6 7 1007.0 1006.7 0.0
23/12:00am 19.5 15.3 1.5 30 8.2 ENE 13 13 7 7 1007.3 1007.0 0.0
 
Date/Time
EDT
Temp
°C
App
Temp
°C
Dew
Point
°C
Rel
Hum
%
Delta-T
°C
Wind Press
QNH
hPa
Press
MSL
hPa
Rain since
9am
mm
Dir  Spd
km/h
Gust
km/h
Spd
kts
Gust
kts
22/11:30pm 19.7 16.8 1.2 29 8.4 NE 6 7 3 4 1008.2 1007.9 0.0
22/11:00pm 20.9 17.4 1.2 27 9.0 ESE 9 11 5 6 1008.2 1007.9 0.0
22/10:30pm 22.4 18.2 1.4 25 9.8 SE 13 15 7 8 1007.6 1007.3 0.0
22/10:00pm 23.8 19.2 1.4 23 10.6 SE 15 17 8 9 1008.1 1007.8 0.0
22/09:30pm 23.7 19.1 1.4 23 10.5 SE 15 15 8 8 1008.3 1008.0 0.0
22/09:00pm 22.8 18.8 0.6 23 10.2 SE 11 13 6 7 1008.4 1008.1 0.0
22/08:30pm 24.7 21.1 0.3 20 11.3 SE 9 11 5 6 1008.2 1007.9 0.0
22/08:00pm 25.7 21.7 0.4 19 11.9 SE 11 11 6 6 1008.2 1007.9 0.0
22/07:30pm 28.7 25.3 -0.5 15 13.7 ESE 7 7 4 4 1008.1 1007.8 0.0
22/07:00pm 30.3 26.6 -0.1 14 14.6 ESE 9 13 5 7 1008.1 1007.8 0.0
22/06:30pm 30.4 27.1 -1.1 13 14.9 SSE 6 9 3 5 1008.1 1007.8 0.0
22/06:00pm 31.0 27.2 -0.6 13 15.1 SSE 9 15 5 8 1008.0 1007.7 0.0
22/05:30pm 31.6 28.3 -1.2 12 15.6 E 6 15 3 8 1008.0 1007.7 0.0
22/05:00pm 31.4 26.9 -0.3 13 15.3 SSE 13 19 7 10 1007.9 1007.6 0.0
22/04:30pm 32.2 28.2 0.3 13 15.6 S 11 22 6 12 1008.0 1007.7 0.0
22/04:00pm 31.7 28.0 -0.1 13 15.4 E 9 19 5 10 1008.3 1008.0 0.0
22/03:30pm 31.3 26.4 -0.4 13 15.2 E 15 24 8 13 1008.7 1008.4 0.0
22/03:00pm 31.4 26.9 -0.3 13 15.3 E 13 46 7 25 1009.0 1008.7 0.0
22/02:30pm 31.1 26.7 0.5 14 14.9 ESE 13 20 7 11 1009.3 1009.0 0.0
22/02:00pm 31.9 27.1 0.1 13 15.5 ESE 15 24 8 13 1009.8 1009.5 0.0
22/01:30pm 30.6 25.8 0.1 14 14.7 SE 15 26 8 14 1010.4 1010.2 0.0
22/01:00pm 30.7 25.5 0.2 14 14.8 SSE 17 33 9 18 1010.8 1010.6 0.0
22/12:30pm 30.4 24.9 0.9 15 14.4 ESE 19 32 10 17 1011.3 1011.1 0.0
22/12:00pm 29.6 24.4 0.2 15 14.1 SE 17 28 9 15 1011.7 1011.5 0.0
22/11:30am 28.6 23.4 0.3 16 13.5 ESE 17 30 9 16 1012.1 1011.9 0.0
22/11:00am 28.0 22.8 -0.1 16 13.3 ESE 17 24 9 13 1012.5 1012.3 0.0
22/10:30am 27.5 22.6 -0.5 16 13.1 E 15 24 8 13 1012.7 1012.5 0.0
22/10:00am 26.9 22.3 1.3 19 12.3 E 15 24 8 13 1012.9 1012.6 0.0
22/09:30am 25.5 20.6 2.2 22 11.3 E 17 22 9 12 1012.9 1012.6 0.0
22/09:00am 23.6 19.1 2.4 25 10.1 E 15 20 8 11 1012.9 1012.6 0.0
22/08:30am 22.2 17.3 1.8 26 9.5 E 17 22 9 12 1012.6 1012.4 0.0
22/08:00am 19.6 15.8 2.0 31 8.1 E 11 15 6 8 1012.4 1012.2 0.0
22/07:55am 19.2 15.9 2.6 33 7.7 E 9 13 5 7 1012.4 1012.2 0.0
22/07:30am 14.2 12.3 2.8 46 5.1 NW 2 6 1 3 1012.6 1012.4 0.0
22/07:00am 12.4 9.3 1.4 47 4.7 SSW 7 7 4 4 1012.3 1012.1 0.0
22/06:30am 12.1 8.6 1.1 47 4.7 S 9 11 5 6 1011.8 1011.6 0.0
22/06:00am 11.0 7.3 0.1 47 4.5 SSE 9 9 5 5 1011.7 1011.5 0.0

Other formats

Comma delimited format used in spreadsheet applications
http://www.bom.gov.au/fwo/IDN60801/IDN60801.95695.axf

JavaScript Object Notation format (JSON) in row-major order
http://www.bom.gov.au/fwo/IDN60801/IDN60801.95695.json

Data quality

Most of these data are generated automatically and are frequently updated. Quality checks on data are not normally performed. It is possible for incorrect values to appear. Refer to information at About Latest Weather Observations and please check the disclaimer before using these data.